KHON/HON METAR and TAF weather

Enter ICAO airport designator
Station Type Date Time Source
KHON METAR 2019/04/26 03:55 UTC NOAA

KHON 260355Z AUTO 34011KT 10SM CLR 09/M03 A3013 RMK AO2 SLP203 T00891033


Station Type Date Time Source
KHON Decoded METAR 2019/04/26 03:55 UTC NOAA

HURON REGIONAL AIRPORT, SD, United States (KHON) 44-23N 098-14W 390M
Apr 25, 2019 - 11:55 PM EDT / 2019.04.26 0355 UTC
Wind: from the NNW (340 degrees) at 13 MPH (11 KT):0
Visibility: 10 mile(s):0
Sky conditions: clear
Temperature: 48.0 F (8.9 C)
Dew Point: 26.1 F (-3.3 C)
Relative Humidity: 42%
Pressure (altimeter): 30.13 in. Hg (1020 hPa)
ob: KHON 260355Z AUTO 34011KT 10SM CLR 09/M03 A3013 RMK AO2 SLP203 T00891033
cycle: 4

Station Type Date Time Source
KHON TAF 2019/04/25 18:22 UTC NOAA

TAF KHON 251720Z 2518/2618 32014G19KT P6SM SKC
FM251900 32016G22KT P6SM VCSH FEW100
FM252200 32017G25KT P6SM SCT100
FM260200 33007KT P6SM SKC
FM261400 VRB03KT P6SM BKN150

Example: see airport list